Time;durP1;ratioP1;P1;durP2;ratioP2;P2;SDS_P1;SDS_P2;PMS_P1;PMS_P2;Temp;Humidity;BMP_temperature;BMP_pressure;BME280_temperature;BME280_humidity;BME280_pressure;Samples;Min_cycle;Max_cycle;Signal;HPM_P1;HPM_P2
2023/06/22 00:01:14;;;;;;;4.30;3.90;;;;;;;;;;8332649;28;21031;-60
2023/06/22 00:05:14;;;;;;;4.57;3.83;;;;;;;;;;8339206;28;20032;-59
2023/06/22 00:09:14;;;;;;;8.07;3.70;;;;;;;;;;8331830;28;20086;-60
2023/06/22 00:13:15;;;;;;;3.95;3.47;;;;;;;;;;8334387;28;20027;-60
2023/06/22 00:17:15;;;;;;;4.60;3.90;;;;;;;;;;8331052;28;20467;-60
2023/06/22 00:21:15;;;;;;;6.40;4.35;;;;;;;;;;8317441;28;20027;-60
2023/06/22 00:25:16;;;;;;;7.18;4.43;;;;;;;;;;8334848;28;20094;-59
2023/06/22 00:29:16;;;;;;;6.00;3.88;;;;;;;;;;8334428;28;20101;-60
2023/06/22 00:33:17;;;;;;;4.45;4.05;;;;;;;;;;8334841;28;20485;-59
2023/06/22 00:37:17;;;;;;;5.03;3.97;;;;;;;;;;8333238;28;20101;-59
2023/06/22 00:41:17;;;;;;;5.05;4.00;;;;;;;;;;8334373;28;20028;-60
2023/06/22 00:45:18;;;;;;;4.95;3.65;;;;;;;;;;8337062;28;20376;-59
2023/06/22 00:49:18;;;;;;;4.30;3.90;;;;;;;;;;8335695;28;20025;-59
2023/06/22 00:53:19;;;;;;;4.65;3.80;;;;;;;;;;8335107;28;20033;-59
2023/06/22 00:57:20;;;;;;;3.47;3.17;;;;;;;;;;8333130;28;20077;-60
2023/06/22 01:01:23;;;;;;;4.53;3.55;;;;;;;;;;8332206;28;20125;-60
2023/06/22 01:05:23;;;;;;;4.40;3.70;;;;;;;;;;8335391;28;20039;-60
2023/06/22 01:09:28;;;;;;;5.80;3.90;;;;;;;;;;8333649;28;20020;-60
2023/06/22 01:13:41;;;;;;;6.68;4.15;;;;;;;;;;8336375;28;20361;-60
2023/06/22 01:17:43;;;;;;;4.63;4.10;;;;;;;;;;8333570;28;20780;-60
2023/06/22 01:21:45;;;;;;;5.93;3.67;;;;;;;;;;8335469;28;20025;-61
2023/06/22 01:25:53;;;;;;;6.15;3.72;;;;;;;;;;8331840;28;20815;-60
2023/06/22 01:30:00;;;;;;;4.43;3.85;;;;;;;;;;8333899;28;20033;-60
2023/06/22 01:34:01;;;;;;;6.63;4.32;;;;;;;;;;8333072;28;20056;-60
2023/06/22 01:38:01;;;;;;;3.97;3.53;;;;;;;;;;8331525;28;20028;-60
2023/06/22 01:42:02;;;;;;;5.30;3.53;;;;;;;;;;8333083;28;20067;-60
2023/06/22 01:46:03;;;;;;;3.63;3.25;;;;;;;;;;8333629;28;20041;-60
2023/06/22 01:50:03;;;;;;;3.90;3.50;;;;;;;;;;8333127;28;20222;-60
2023/06/22 01:54:05;;;;;;;4.93;3.55;;;;;;;;;;8318304;28;20115;-60
2023/06/22 01:58:06;;;;;;;3.80;3.40;;;;;;;;;;8332698;28;20090;-60
2023/06/22 02:02:07;;;;;;;3.60;3.30;;;;;;;;;;8332487;28;20178;-60
2023/06/22 02:06:10;;;;;;;3.63;3.33;;;;;;;;;;8333718;28;20288;-60
2023/06/22 02:10:13;;;;;;;3.77;3.40;;;;;;;;;;8333054;28;20635;-60
2023/06/22 02:14:13;;;;;;;3.80;3.50;;;;;;;;;;8333951;28;20307;-60
2023/06/22 02:18:13;;;;;;;4.25;3.53;;;;;;;;;;8331660;28;20033;-60
2023/06/22 02:22:14;;;;;;;4.63;3.70;;;;;;;;;;8334317;28;20132;-60
2023/06/22 02:26:16;;;;;;;4.57;4.18;;;;;;;;;;8337392;28;20107;-60
2023/06/22 02:30:16;;;;;;;6.20;4.68;;;;;;;;;;8338182;28;20123;-59
2023/06/22 02:34:18;;;;;;;5.30;4.63;;;;;;;;;;8337157;28;20134;-60
2023/06/22 02:38:19;;;;;;;5.55;5.05;;;;;;;;;;8344330;28;20279;-60
2023/06/22 02:42:21;;;;;;;5.07;4.57;;;;;;;;;;8339765;28;20140;-59
2023/06/22 02:46:22;;;;;;;4.65;4.05;;;;;;;;;;8337468;28;20750;-59
2023/06/22 02:50:22;;;;;;;4.95;4.45;;;;;;;;;;8338344;28;20155;-60
2023/06/22 02:54:22;;;;;;;5.25;4.70;;;;;;;;;;8338935;28;20036;-60
2023/06/22 02:58:23;;;;;;;5.13;4.30;;;;;;;;;;8336681;28;20037;-60
2023/06/22 03:02:24;;;;;;;5.53;4.53;;;;;;;;;;8338957;28;20040;-60
2023/06/22 03:06:28;;;;;;;5.18;4.68;;;;;;;;;;8338456;28;20110;-60
2023/06/22 03:10:28;;;;;;;8.73;6.18;;;;;;;;;;8339548;28;20617;-60
2023/06/22 03:14:28;;;;;;;6.38;5.65;;;;;;;;;;8344087;28;20032;-60
2023/06/22 03:18:28;;;;;;;10.73;6.85;;;;;;;;;;8338358;28;20044;-60
2023/06/22 03:22:28;;;;;;;7.90;6.70;;;;;;;;;;8346347;28;20119;-60
2023/06/22 03:26:29;;;;;;;8.98;6.32;;;;;;;;;;8337426;28;20108;-60
2023/06/22 03:30:30;;;;;;;7.35;6.57;;;;;;;;;;8336479;28;20045;-61
2023/06/22 03:34:33;;;;;;;8.90;7.97;;;;;;;;;;8338066;28;20131;-60
2023/06/22 03:38:33;;;;;;;7.63;5.90;;;;;;;;;;8335401;28;20055;-60
2023/06/22 03:42:35;;;;;;;7.73;5.97;;;;;;;;;;8336324;28;20749;-60
2023/06/22 03:46:35;;;;;;;7.45;6.35;;;;;;;;;;8337707;28;20040;-60
2023/06/22 03:50:36;;;;;;;7.47;6.60;;;;;;;;;;8338777;28;20028;-60
2023/06/22 03:54:36;;;;;;;9.45;6.60;;;;;;;;;;8337878;28;20275;-60
2023/06/22 03:58:42;;;;;;;7.27;6.57;;;;;;;;;;8336531;28;20105;-60
2023/06/22 04:02:42;;;;;;;8.38;6.68;;;;;;;;;;8337018;28;20405;-60
2023/06/22 04:06:43;;;;;;;7.60;6.80;;;;;;;;;;8335370;28;20059;-60
2023/06/22 04:10:43;;;;;;;7.60;6.90;;;;;;;;;;8335881;28;20063;-60
2023/06/22 04:14:43;;;;;;;8.18;6.80;;;;;;;;;;8338034;28;20064;-60
2023/06/22 04:18:43;;;;;;;8.38;7.47;;;;;;;;;;8335209;28;20041;-60
2023/06/22 04:22:45;;;;;;;8.57;7.68;;;;;;;;;;8336708;28;20028;-60
2023/06/22 04:26:46;;;;;;;7.93;7.15;;;;;;;;;;8334975;28;20025;-60
2023/06/22 04:30:47;;;;;;;7.40;6.60;;;;;;;;;;8334582;28;20040;-60
2023/06/22 04:34:47;;;;;;;8.23;6.65;;;;;;;;;;8333822;28;20064;-60
2023/06/22 04:38:47;;;;;;;7.20;6.50;;;;;;;;;;8333539;28;20021;-60
2023/06/22 04:42:52;;;;;;;9.05;6.72;;;;;;;;;;8333392;28;20048;-60
2023/06/22 04:47:08;;;;;;;6.63;6.03;;;;;;;;;;8333737;28;20114;-60
2023/06/22 04:51:08;;;;;;;11.18;8.85;;;;;;;;;;8335405;28;20798;-60
2023/06/22 04:55:08;;;;;;;8.43;6.65;;;;;;;;;;8329875;28;20809;-60
2023/06/22 04:59:12;;;;;;;7.73;7.00;;;;;;;;;;8336925;28;20031;-60
2023/06/22 05:03:13;;;;;;;7.55;6.75;;;;;;;;;;8333620;28;20287;-60
2023/06/22 05:07:13;;;;;;;8.90;8.00;;;;;;;;;;8332334;28;20024;-60
2023/06/22 05:11:13;;;;;;;8.25;7.28;;;;;;;;;;8333512;28;21195;-60
2023/06/22 05:15:14;;;;;;;11.07;8.38;;;;;;;;;;8334392;28;20104;-60
2023/06/22 05:19:15;;;;;;;10.10;8.15;;;;;;;;;;8334388;28;20027;-60
2023/06/22 05:23:15;;;;;;;9.98;7.85;;;;;;;;;;8332945;28;20021;-60
2023/06/22 05:27:15;;;;;;;9.55;7.15;;;;;;;;;;8333530;28;20425;-60
2023/06/22 05:31:16;;;;;;;7.95;6.95;;;;;;;;;;8332488;28;20029;-61
2023/06/22 05:35:16;;;;;;;9.57;7.22;;;;;;;;;;8334436;28;20539;-60
2023/06/22 05:39:16;;;;;;;9.52;7.20;;;;;;;;;;8331573;28;20508;-60
2023/06/22 05:43:16;;;;;;;7.60;6.77;;;;;;;;;;8332490;28;20029;-60
2023/06/22 05:47:17;;;;;;;6.70;5.88;;;;;;;;;;8333684;28;20306;-60
2023/06/22 05:51:17;;;;;;;10.82;6.65;;;;;;;;;;8333043;28;20125;-60
2023/06/22 05:55:18;;;;;;;7.50;6.60;;;;;;;;;;8331955;28;20024;-60
2023/06/22 05:59:19;;;;;;;6.43;5.55;;;;;;;;;;8342526;28;20067;-60
2023/06/22 06:03:19;;;;;;;8.70;5.97;;;;;;;;;;8346907;28;20716;-60
2023/06/22 06:07:19;;;;;;;6.45;5.85;;;;;;;;;;8340958;28;20031;-60
2023/06/22 06:11:20;;;;;;;6.13;5.53;;;;;;;;;;8339346;28;20063;-61
2023/06/22 06:15:20;;;;;;;7.53;5.23;;;;;;;;;;8339733;28;20450;-61
2023/06/22 06:19:20;;;;;;;5.57;5.07;;;;;;;;;;8340403;28;20028;-61
2023/06/22 06:23:20;;;;;;;6.72;5.68;;;;;;;;;;8338005;28;20085;-61
2023/06/22 06:27:21;;;;;;;9.60;5.20;;;;;;;;;;8340125;28;20020;-60
2023/06/22 06:31:21;;;;;;;5.88;4.85;;;;;;;;;;8340630;28;20036;-60
2023/06/22 06:35:21;;;;;;;6.57;4.97;;;;;;;;;;8340291;28;20142;-60
2023/06/22 06:39:22;;;;;;;5.97;5.05;;;;;;;;;;8327785;28;20032;-60
2023/06/22 06:43:23;;;;;;;7.57;5.57;;;;;;;;;;8337535;28;20033;-61
2023/06/22 06:47:23;;;;;;;7.97;6.10;;;;;;;;;;8335212;28;20036;-60
2023/06/22 06:51:24;;;;;;;8.07;5.20;;;;;;;;;;8338905;28;20040;-61
2023/06/22 06:55:25;;;;;;;7.38;5.10;;;;;;;;;;8338107;28;20115;-61
2023/06/22 06:59:25;;;;;;;5.35;4.88;;;;;;;;;;8339405;28;20025;-61
2023/06/22 07:03:25;;;;;;;6.82;5.05;;;;;;;;;;8333241;28;20491;-61
2023/06/22 07:07:26;;;;;;;6.57;5.40;;;;;;;;;;8339365;28;20584;-61
2023/06/22 07:11:26;;;;;;;5.63;5.00;;;;;;;;;;8338873;28;20143;-61
2023/06/22 07:15:26;;;;;;;6.15;5.10;;;;;;;;;;8337692;28;20160;-61
2023/06/22 07:19:27;;;;;;;6.45;5.00;;;;;;;;;;8337737;28;20967;-61
2023/06/22 07:23:28;;;;;;;7.22;4.53;;;;;;;;;;8336072;28;20888;-61
2023/06/22 07:27:28;;;;;;;5.82;5.32;;;;;;;;;;8336588;28;20955;-60
2023/06/22 07:31:28;;;;;;;6.30;4.65;;;;;;;;;;8337172;28;20028;-61
2023/06/22 07:35:29;;;;;;;4.78;4.28;;;;;;;;;;8336544;28;20044;-60
2023/06/22 07:39:29;;;;;;;9.52;4.88;;;;;;;;;;8334887;28;20126;-61
2023/06/22 07:43:29;;;;;;;5.80;5.20;;;;;;;;;;8336309;28;20029;-61
2023/06/22 07:47:30;;;;;;;5.85;5.30;;;;;;;;;;8332036;28;20037;-61
2023/06/22 07:51:30;;;;;;;6.78;5.22;;;;;;;;;;8335385;28;20757;-61
2023/06/22 07:55:30;;;;;;;5.50;5.00;;;;;;;;;;8339444;28;20697;-61
2023/06/22 07:59:30;;;;;;;5.97;5.00;;;;;;;;;;8337620;28;20185;-61
2023/06/22 08:03:30;;;;;;;5.72;5.13;;;;;;;;;;8333947;28;20059;-61
2023/06/22 08:07:33;;;;;;;6.32;5.00;;;;;;;;;;8334750;28;20048;-61
2023/06/22 08:11:33;;;;;;;5.85;5.30;;;;;;;;;;8342570;28;20031;-61
2023/06/22 08:15:34;;;;;;;5.50;5.00;;;;;;;;;;8334148;28;20155;-61
2023/06/22 08:19:34;;;;;;;6.47;4.80;;;;;;;;;;8336388;28;21176;-60
2023/06/22 08:23:35;;;;;;;5.55;3.95;;;;;;;;;;8337599;28;20033;-61
2023/06/22 08:27:35;;;;;;;6.13;4.80;;;;;;;;;;8333684;28;20033;-61
2023/06/22 08:31:36;;;;;;;6.67;3.87;;;;;;;;;;8332680;28;20036;-61
2023/06/22 08:35:36;;;;;;;7.18;4.32;;;;;;;;;;8333716;28;20108;-62
2023/06/22 08:39:36;;;;;;;6.22;4.20;;;;;;;;;;8315512;28;20017;-61
2023/06/22 08:43:37;;;;;;;6.73;4.70;;;;;;;;;;8335332;28;20079;-61
2023/06/22 08:47:37;;;;;;;10.02;4.90;;;;;;;;;;8333276;28;20105;-61
2023/06/22 08:51:37;;;;;;;8.53;4.50;;;;;;;;;;8333401;28;20077;-61
2023/06/22 08:55:37;;;;;;;6.70;5.20;;;;;;;;;;8333854;28;20142;-61
2023/06/22 08:59:38;;;;;;;6.78;5.18;;;;;;;;;;8332858;28;20040;-60
2023/06/22 09:03:38;;;;;;;4.95;4.53;;;;;;;;;;8334237;28;20036;-60
2023/06/22 09:07:38;;;;;;;7.32;5.40;;;;;;;;;;8335523;28;20025;-60
2023/06/22 09:11:38;;;;;;;7.97;5.38;;;;;;;;;;8334843;28;20066;-61
2023/06/22 09:15:38;;;;;;;6.03;5.30;;;;;;;;;;8334687;28;21029;-60
2023/06/22 09:19:39;;;;;;;5.18;4.68;;;;;;;;;;8333800;28;20075;-60
2023/06/22 09:23:39;;;;;;;6.45;5.43;;;;;;;;;;8334174;28;20029;-60
2023/06/22 09:27:39;;;;;;;7.70;6.10;;;;;;;;;;8313322;28;20225;-61
2023/06/22 09:31:39;;;;;;;6.18;5.57;;;;;;;;;;8336428;28;20505;-60
2023/06/22 09:35:40;;;;;;;6.00;5.22;;;;;;;;;;8338449;28;20095;-60
2023/06/22 09:39:40;;;;;;;6.82;6.13;;;;;;;;;;8340313;28;20056;-61
2023/06/22 09:43:40;;;;;;;10.50;6.25;;;;;;;;;;8343297;28;20029;-60
2023/06/22 09:47:41;;;;;;;7.05;6.00;;;;;;;;;;8340107;28;20033;-61
2023/06/22 09:51:41;;;;;;;10.02;6.03;;;;;;;;;;8338704;28;20080;-60
2023/06/22 09:55:41;;;;;;;8.13;5.68;;;;;;;;;;8338120;28;20021;-60
2023/06/22 09:59:41;;;;;;;8.60;6.15;;;;;;;;;;8340404;28;20052;-60
2023/06/22 10:03:42;;;;;;;8.73;5.57;;;;;;;;;;8339372;28;20043;-60
2023/06/22 10:07:43;;;;;;;5.55;5.03;;;;;;;;;;8339785;28;20029;-60
2023/06/22 10:11:43;;;;;;;5.93;5.33;;;;;;;;;;8343631;28;20527;-60
2023/06/22 10:15:45;;;;;;;5.65;5.00;;;;;;;;;;8339686;28;20044;-60
2023/06/22 10:19:45;;;;;;;;;;;;;;;;;;8346189;28;20389;-60
2023/06/22 10:23:45;;;;;;;6.25;4.93;;;;;;;;;;8346262;28;19920;-61
2023/06/22 10:27:45;;;;;;;5.53;4.80;;;;;;;;;;8335903;28;20021;-60
2023/06/22 10:31:46;;;;;;;7.82;5.40;;;;;;;;;;8338662;28;20037;-61
2023/06/22 10:35:46;;;;;;;6.80;5.10;;;;;;;;;;8335907;28;20043;-61
2023/06/22 10:39:46;;;;;;;6.60;5.13;;;;;;;;;;8338364;28;20020;-61
2023/06/22 10:43:46;;;;;;;9.27;4.80;;;;;;;;;;8337667;28;20496;-60
2023/06/22 10:47:46;;;;;;;8.85;5.00;;;;;;;;;;8337368;28;20060;-61
2023/06/22 10:51:46;;;;;;;6.63;4.78;;;;;;;;;;8339374;28;20035;-61
2023/06/22 10:55:47;;;;;;;7.15;4.80;;;;;;;;;;8337641;28;20841;-61
2023/06/22 10:59:47;;;;;;;7.97;4.80;;;;;;;;;;8338293;28;20457;-61
2023/06/22 11:03:47;;;;;;;7.72;4.40;;;;;;;;;;8336598;28;20044;-61
2023/06/22 11:07:49;;;;;;;10.10;5.05;;;;;;;;;;8335070;28;20029;-61
2023/06/22 11:11:49;;;;;;;;;;;;;;;;;;8337002;28;20024;-61
2023/06/22 11:15:49;;;;;;;6.77;4.90;;;;;;;;;;8335832;28;19917;-61
2023/06/22 11:19:50;;;;;;;8.95;5.00;;;;;;;;;;8335534;28;20919;-61
2023/06/22 11:23:50;;;;;;;5.57;4.60;;;;;;;;;;8337268;28;20024;-61
2023/06/22 11:27:51;;;;;;;6.78;4.57;;;;;;;;;;8334313;28;20045;-60
2023/06/22 11:31:51;;;;;;;7.33;4.50;;;;;;;;;;8334750;28;20036;-61
2023/06/22 11:35:51;;;;;;;8.67;4.67;;;;;;;;;;8335120;28;20023;-61
2023/06/22 11:39:54;;;;;;;8.77;4.53;;;;;;;;;;8333385;28;20024;-61
2023/06/22 11:43:54;;;;;;;10.45;4.40;;;;;;;;;;8337054;28;20925;-61
2023/06/22 11:47:55;;;;;;;6.65;4.80;;;;;;;;;;8331293;28;20041;-61
2023/06/22 11:51:55;;;;;;;6.35;4.30;;;;;;;;;;8333549;28;20058;-61
2023/06/22 11:55:55;;;;;;;6.25;4.03;;;;;;;;;;8332563;28;20057;-61
2023/06/22 11:59:55;;;;;;;6.50;4.30;;;;;;;;;;8336724;28;20127;-61
2023/06/22 12:03:56;;;;;;;6.90;3.78;;;;;;;;;;8336731;28;20094;-61
2023/06/22 12:07:56;;;;;;;9.75;4.05;;;;;;;;;;8331753;28;20024;-60
2023/06/22 12:11:56;;;;;;;8.53;4.00;;;;;;;;;;8316065;28;20020;-60
2023/06/22 12:15:56;;;;;;;7.38;3.55;;;;;;;;;;8332655;28;20123;-60
2023/06/22 12:19:56;;;;;;;8.57;4.13;;;;;;;;;;8333390;28;20089;-60
2023/06/22 12:23:57;;;;;;;7.90;3.90;;;;;;;;;;8333408;28;20016;-60
2023/06/22 12:27:57;;;;;;;7.95;3.92;;;;;;;;;;8331459;28;20029;-60
2023/06/22 12:31:57;;;;;;;6.63;3.60;;;;;;;;;;8330756;28;20025;-60
2023/06/22 12:35:57;;;;;;;7.70;3.93;;;;;;;;;;8332306;28;20021;-60
2023/06/22 12:39:58;;;;;;;7.27;3.63;;;;;;;;;;8331576;28;20031;-60
2023/06/22 12:43:58;;;;;;;11.82;4.45;;;;;;;;;;8334145;28;20060;-60
2023/06/22 12:47:59;;;;;;;9.05;4.20;;;;;;;;;;8333071;28;20079;-61
2023/06/22 12:52:00;;;;;;;9.93;4.00;;;;;;;;;;8330605;28;20058;-61
2023/06/22 12:56:01;;;;;;;8.33;4.10;;;;;;;;;;8335156;28;20056;-61
2023/06/22 13:00:01;;;;;;;10.27;4.53;;;;;;;;;;8335758;28;20519;-61
2023/06/22 13:04:01;;;;;;;7.28;4.05;;;;;;;;;;8331010;28;20032;-61
2023/06/22 13:08:02;;;;;;;10.27;4.47;;;;;;;;;;8315961;28;20477;-61
2023/06/22 13:12:02;;;;;;;9.17;4.53;;;;;;;;;;8335773;28;20060;-61
2023/06/22 13:16:02;;;;;;;10.00;4.32;;;;;;;;;;8326906;28;20051;-61
2023/06/22 13:20:04;;;;;;;7.60;4.53;;;;;;;;;;8326367;28;21277;-61
2023/06/22 13:24:06;;;;;;;10.48;4.32;;;;;;;;;;8329247;28;20179;-61
2023/06/22 13:28:06;;;;;;;13.80;3.60;;;;;;;;;;8329109;28;20500;-61
2023/06/22 13:32:07;;;;;;;14.07;3.33;;;;;;;;;;8333010;28;20113;-61
2023/06/22 13:36:07;;;;;;;8.07;3.60;;;;;;;;;;8332671;28;20020;-61
2023/06/22 13:40:08;;;;;;;14.33;4.20;;;;;;;;;;8332698;28;20025;-61
2023/06/22 13:44:08;;;;;;;12.90;3.60;;;;;;;;;;8330332;28;20241;-61
2023/06/22 13:48:09;;;;;;;12.32;3.95;;;;;;;;;;8340336;28;20685;-61
2023/06/22 13:52:10;;;;;;;15.35;4.13;;;;;;;;;;8335674;28;20032;-61
2023/06/22 13:56:11;;;;;;;11.20;3.70;;;;;;;;;;8329205;28;20118;-61
2023/06/22 14:00:12;;;;;;;12.23;3.85;;;;;;;;;;8328922;28;20829;-61
2023/06/22 14:04:12;;;;;;;13.75;3.70;;;;;;;;;;8330070;28;20017;-61
2023/06/22 14:08:13;;;;;;;10.70;3.63;;;;;;;;;;8327754;28;20630;-61
2023/06/22 14:12:13;;;;;;;11.73;4.03;;;;;;;;;;8328852;28;20013;-61
2023/06/22 14:16:13;;;;;;;11.20;3.80;;;;;;;;;;8329828;28;20040;-61
2023/06/22 14:20:14;;;;;;;17.87;3.90;;;;;;;;;;8336526;28;20027;-61
2023/06/22 14:24:14;;;;;;;12.63;3.97;;;;;;;;;;8338342;28;20025;-61
2023/06/22 14:28:16;;;;;;;17.20;4.05;;;;;;;;;;8342164;28;20166;-61
2023/06/22 14:32:16;;;;;;;12.75;4.05;;;;;;;;;;8334694;28;20072;-61
2023/06/22 14:36:20;;;;;;;9.88;4.07;;;;;;;;;;8339097;28;20012;-61
2023/06/22 14:40:20;;;;;;;14.45;3.97;;;;;;;;;;8335132;28;20108;-61
2023/06/22 14:44:20;;;;;;;10.55;3.75;;;;;;;;;;8335107;28;20576;-61
2023/06/22 14:48:20;;;;;;;9.90;4.10;;;;;;;;;;8334233;28;20544;-61
2023/06/22 14:52:21;;;;;;;15.40;4.60;;;;;;;;;;8336167;28;20024;-61
2023/06/22 14:56:21;;;;;;;13.23;4.10;;;;;;;;;;8335380;28;20117;-61
2023/06/22 15:00:21;;;;;;;14.07;4.15;;;;;;;;;;8335429;28;20025;-61
2023/06/22 15:04:21;;;;;;;10.60;3.97;;;;;;;;;;8334307;28;20037;-60
2023/06/22 15:08:22;;;;;;;11.52;3.83;;;;;;;;;;8333212;28;20117;-60
2023/06/22 15:12:22;;;;;;;11.07;3.80;;;;;;;;;;8333322;28;20039;-60
2023/06/22 15:16:22;;;;;;;20.08;3.65;;;;;;;;;;8341646;28;20047;-60
2023/06/22 15:20:22;;;;;;;13.15;3.85;;;;;;;;;;8345645;28;20033;-60
2023/06/22 15:24:22;;;;;;;14.45;3.95;;;;;;;;;;8335050;28;20035;-60
2023/06/22 15:28:23;;;;;;;9.40;3.53;;;;;;;;;;8331983;28;20511;-60
2023/06/22 15:32:23;;;;;;;15.80;3.50;;;;;;;;;;8331961;28;20086;-60
2023/06/22 15:36:23;;;;;;;9.50;2.95;;;;;;;;;;8335896;28;20814;-60
2023/06/22 15:40:24;;;;;;;12.02;3.45;;;;;;;;;;8330691;28;20389;-60
2023/06/22 15:44:24;;;;;;;8.00;2.80;;;;;;;;;;8336180;28;20036;-60
2023/06/22 15:48:24;;;;;;;9.85;3.15;;;;;;;;;;8331256;28;20033;-60
2023/06/22 15:52:24;;;;;;;6.68;2.75;;;;;;;;;;8329988;28;20124;-60
2023/06/22 15:56:25;;;;;;;11.07;3.60;;;;;;;;;;8330734;28;20047;-60
2023/06/22 16:00:26;;;;;;;9.13;3.07;;;;;;;;;;8329807;28;20042;-61
2023/06/22 16:04:26;;;;;;;8.80;3.10;;;;;;;;;;8336508;28;20104;-61
2023/06/22 16:08:30;;;;;;;12.87;3.40;;;;;;;;;;8334069;28;20090;-60
2023/06/22 16:12:30;;;;;;;10.40;3.70;;;;;;;;;;8322092;28;20033;-61
2023/06/22 16:16:30;;;;;;;11.70;3.65;;;;;;;;;;8334365;28;20040;-61
2023/06/22 16:20:31;;;;;;;7.85;3.53;;;;;;;;;;8332573;28;20422;-61
2023/06/22 16:24:31;;;;;;;8.65;3.05;;;;;;;;;;8330606;28;20132;-60
2023/06/22 16:28:31;;;;;;;8.80;3.15;;;;;;;;;;8331962;28;20101;-60
2023/06/22 16:32:31;;;;;;;9.40;2.83;;;;;;;;;;8332963;28;20269;-61
2023/06/22 16:36:31;;;;;;;9.23;3.15;;;;;;;;;;8332884;28;20276;-60
2023/06/22 16:40:32;;;;;;;11.93;2.70;;;;;;;;;;8333734;28;20033;-60
2023/06/22 16:44:32;;;;;;;7.10;2.50;;;;;;;;;;8338388;28;20029;-60
2023/06/22 16:48:33;;;;;;;8.40;3.08;;;;;;;;;;8329700;28;20877;-61
2023/06/22 16:52:34;;;;;;;7.00;2.55;;;;;;;;;;8336430;28;20141;-61
2023/06/22 16:56:34;;;;;;;5.43;2.70;;;;;;;;;;8313461;28;20032;-60
2023/06/22 17:00:36;;;;;;;5.65;2.40;;;;;;;;;;8330267;28;20843;-61
2023/06/22 17:04:36;;;;;;;7.85;2.33;;;;;;;;;;8331088;28;20036;-60
2023/06/22 17:08:37;;;;;;;10.07;2.70;;;;;;;;;;8330995;28;20115;-60
2023/06/22 17:12:38;;;;;;;9.05;2.50;;;;;;;;;;8331553;28;20539;-60
2023/06/22 17:16:41;;;;;;;6.20;2.28;;;;;;;;;;8327051;28;20047;-60
2023/06/22 17:20:41;;;;;;;6.57;2.30;;;;;;;;;;8330343;28;20040;-59
2023/06/22 17:24:43;;;;;;;6.20;2.28;;;;;;;;;;8329955;28;20253;-59
2023/06/22 17:28:47;;;;;;;6.45;2.28;;;;;;;;;;8311944;28;20028;-60
2023/06/22 17:32:48;;;;;;;6.13;2.28;;;;;;;;;;8327932;28;20123;-60
2023/06/22 17:36:49;;;;;;;3.67;2.00;;;;;;;;;;8326932;28;20102;-60
2023/06/22 17:40:49;;;;;;;7.37;2.23;;;;;;;;;;8329087;28;20136;-60
2023/06/22 17:44:50;;;;;;;4.47;2.27;;;;;;;;;;8335031;28;20056;-60
2023/06/22 17:48:50;;;;;;;5.10;2.33;;;;;;;;;;8332045;28;20287;-60
2023/06/22 17:52:55;;;;;;;5.65;2.22;;;;;;;;;;8336287;28;20279;-60
2023/06/22 17:56:55;;;;;;;8.18;2.47;;;;;;;;;;8337781;28;20028;-57
2023/06/22 18:00:55;;;;;;;4.40;2.10;;;;;;;;;;8340567;28;21247;-60
2023/06/22 18:05:01;;;;;;;5.72;1.95;;;;;;;;;;8339060;28;20350;-60
2023/06/22 18:09:04;;;;;;;5.70;1.95;;;;;;;;;;8337279;28;20577;-60
2023/06/22 18:13:04;;;;;;;6.20;2.00;;;;;;;;;;8338587;28;20020;-60
2023/06/22 18:17:04;;;;;;;3.23;1.77;;;;;;;;;;8338158;28;20678;-60
2023/06/22 18:21:06;;;;;;;4.10;1.95;;;;;;;;;;8340073;28;20020;-60
2023/06/22 18:25:06;;;;;;;5.50;1.85;;;;;;;;;;8339165;28;20032;-61
2023/06/22 18:29:07;;;;;;;5.22;1.67;;;;;;;;;;8338150;28;20025;-60
2023/06/22 18:33:08;;;;;;;7.72;1.52;;;;;;;;;;8340031;28;20032;-60
2023/06/22 18:37:17;;;;;;;4.70;1.30;;;;;;;;;;8335545;28;20090;-60
2023/06/22 18:41:24;;;;;;;5.97;1.30;;;;;;;;;;8338944;28;20017;-60
2023/06/22 18:45:26;;;;;;;5.78;1.20;;;;;;;;;;8336860;28;20040;-60
2023/06/22 18:49:38;;;;;;;4.75;1.30;;;;;;;;;;8347191;28;20025;-61
2023/06/22 18:53:41;;;;;;;2.70;1.20;;;;;;;;;;8341020;28;20570;-60
2023/06/22 18:57:42;;;;;;;3.15;1.08;;;;;;;;;;8337509;28;20025;-60
2023/06/22 19:01:42;;;;;;;2.95;1.00;;;;;;;;;;8340166;28;20060;-61
2023/06/22 19:05:43;;;;;;;0.90;0.80;;;;;;;;;;8318498;28;20060;-60
2023/06/22 19:10:03;;;;;;;6.47;0.88;;;;;;;;;;8320865;28;20140;-60
2023/06/22 19:14:05;;;;;;;4.85;0.80;;;;;;;;;;8336307;28;20183;-61
2023/06/22 19:18:19;;;;;;;4.80;0.82;;;;;;;;;;8337144;28;20040;-60
2023/06/22 19:22:23;;;;;;;2.47;0.80;;;;;;;;;;8340152;28;20033;-60
2023/06/22 19:26:23;;;;;;;6.75;0.93;;;;;;;;;;8337500;28;20095;-60
2023/06/22 19:30:23;;;;;;;3.60;0.90;;;;;;;;;;8318177;28;20033;-60
2023/06/22 19:34:24;;;;;;;1.63;0.90;;;;;;;;;;8335208;28;20063;-60
2023/06/22 19:38:26;;;;;;;2.38;0.80;;;;;;;;;;8334877;28;20055;-61
2023/06/22 19:42:26;;;;;;;4.25;1.02;;;;;;;;;;8334676;28;20190;-61
2023/06/22 19:46:32;;;;;;;1.85;0.80;;;;;;;;;;8333852;28;20060;-60
2023/06/22 19:50:34;;;;;;;2.78;0.80;;;;;;;;;;8336273;28;20035;-60
2023/06/22 19:54:36;;;;;;;6.38;0.90;;;;;;;;;;8336700;28;20036;-61
2023/06/22 19:58:36;;;;;;;1.03;0.87;;;;;;;;;;8336453;28;20041;-60
2023/06/22 20:02:36;;;;;;;4.60;0.80;;;;;;;;;;8337217;28;20115;-60
2023/06/22 20:06:37;;;;;;;1.55;0.70;;;;;;;;;;8333413;28;20020;-60
2023/06/22 20:10:40;;;;;;;1.02;0.70;;;;;;;;;;8332886;28;20121;-60
2023/06/22 20:14:40;;;;;;;;;;;;;;;;;;8333104;28;20505;-60
2023/06/22 20:18:40;;;;;;;1.98;0.65;;;;;;;;;;8332411;28;19966;-60
2023/06/22 20:22:41;;;;;;;1.85;0.70;;;;;;;;;;8335815;28;20032;-60
2023/06/22 20:26:45;;;;;;;4.18;0.60;;;;;;;;;;8335012;28;20590;-60
2023/06/22 20:31:04;;;;;;;1.77;0.80;;;;;;;;;;8336755;28;20024;-60
2023/06/22 20:35:04;;;;;;;1.88;0.60;;;;;;;;;;8330520;28;21710;-60
2023/06/22 20:39:04;;;;;;;0.55;0.55;;;;;;;;;;8334379;28;20079;-60
2023/06/22 20:43:05;;;;;;;2.78;0.70;;;;;;;;;;8336370;28;20043;-60
2023/06/22 20:47:05;;;;;;;0.77;0.75;;;;;;;;;;8333517;28;20499;-60
2023/06/22 20:51:06;;;;;;;3.08;0.70;;;;;;;;;;8334787;28;20040;-60
2023/06/22 20:55:06;;;;;;;2.17;0.70;;;;;;;;;;8334627;28;20251;-60
2023/06/22 20:59:06;;;;;;;0.70;0.60;;;;;;;;;;8336531;28;20035;-60
2023/06/22 21:03:10;;;;;;;1.30;0.70;;;;;;;;;;8335140;28;20759;-59
2023/06/22 21:07:11;;;;;;;3.42;0.70;;;;;;;;;;8334609;28;20087;-60
2023/06/22 21:11:11;;;;;;;1.48;0.80;;;;;;;;;;8333698;28;20036;-60
2023/06/22 21:15:11;;;;;;;0.67;0.60;;;;;;;;;;8332681;28;20024;-60
2023/06/22 21:19:11;;;;;;;0.90;0.80;;;;;;;;;;8332768;28;20034;-60
2023/06/22 21:23:12;;;;;;;0.90;0.80;;;;;;;;;;8334336;28;20031;-60
2023/06/22 21:27:12;;;;;;;0.50;0.50;;;;;;;;;;8329853;28;20075;-60
2023/06/22 21:31:12;;;;;;;0.60;0.60;;;;;;;;;;8333420;28;20470;-60
2023/06/22 21:35:13;;;;;;;1.70;0.70;;;;;;;;;;8335374;28;20113;-60
2023/06/22 21:39:14;;;;;;;3.08;0.70;;;;;;;;;;8331085;28;20012;-60
2023/06/22 21:43:14;;;;;;;0.93;0.60;;;;;;;;;;8333295;28;20016;-60
2023/06/22 21:47:14;;;;;;;0.68;0.50;;;;;;;;;;8333168;28;20783;-60
2023/06/22 21:51:14;;;;;;;0.40;0.40;;;;;;;;;;8332922;28;20424;-60
2023/06/22 21:55:15;;;;;;;0.50;0.50;;;;;;;;;;8332978;28;20033;-60
2023/06/22 21:59:15;;;;;;;0.50;0.50;;;;;;;;;;8336863;28;20024;-60
2023/06/22 22:03:15;;;;;;;1.10;0.40;;;;;;;;;;8331402;28;20457;-59
2023/06/22 22:07:15;;;;;;;1.27;0.50;;;;;;;;;;8329755;28;20025;-60
2023/06/22 22:11:15;;;;;;;0.40;0.40;;;;;;;;;;8333317;28;20574;-60
2023/06/22 22:15:16;;;;;;;0.40;0.40;;;;;;;;;;8331798;28;20120;-60
2023/06/22 22:19:16;;;;;;;2.38;0.50;;;;;;;;;;8334122;28;20148;-59
2023/06/22 22:23:17;;;;;;;0.47;0.47;;;;;;;;;;8333198;28;20032;-60
2023/06/22 22:27:17;;;;;;;0.75;0.50;;;;;;;;;;8331763;28;20017;-60
2023/06/22 22:31:17;;;;;;;1.43;0.67;;;;;;;;;;8331640;28;20782;-60
2023/06/22 22:35:17;;;;;;;0.85;0.65;;;;;;;;;;8333984;28;20286;-59
2023/06/22 22:39:31;;;;;;;1.00;1.00;;;;;;;;;;8334544;28;20039;-59
2023/06/22 22:43:33;;;;;;;0.90;0.90;;;;;;;;;;8337302;28;20927;-59
2023/06/22 22:47:33;;;;;;;1.00;1.00;;;;;;;;;;8347050;28;20633;-59
2023/06/22 22:51:34;;;;;;;1.10;1.10;;;;;;;;;;8339355;28;20028;-59
2023/06/22 22:55:35;;;;;;;1.10;1.05;;;;;;;;;;8337002;28;20446;-59
2023/06/22 22:59:35;;;;;;;1.40;1.30;;;;;;;;;;8338220;28;20780;-60
2023/06/22 23:03:35;;;;;;;1.30;1.20;;;;;;;;;;8341349;28;20068;-60
2023/06/22 23:07:38;;;;;;;1.60;1.50;;;;;;;;;;8338996;28;20021;-60
2023/06/22 23:11:38;;;;;;;2.08;1.88;;;;;;;;;;8338722;28;20036;-60
2023/06/22 23:15:38;;;;;;;2.10;2.00;;;;;;;;;;8336611;28;20091;-60
2023/06/22 23:19:38;;;;;;;2.90;2.70;;;;;;;;;;8319593;28;20875;-60
2023/06/22 23:23:39;;;;;;;2.83;2.63;;;;;;;;;;8337803;28;20491;-60
2023/06/22 23:27:39;;;;;;;2.95;2.75;;;;;;;;;;8318857;28;20366;-60
2023/06/22 23:31:39;;;;;;;3.40;2.80;;;;;;;;;;8337651;28;20079;-60
2023/06/22 23:35:40;;;;;;;3.53;3.17;;;;;;;;;;8337025;28;20016;-60
2023/06/22 23:39:43;;;;;;;3.60;3.30;;;;;;;;;;8337369;28;20030;-60
2023/06/22 23:43:43;;;;;;;3.72;3.42;;;;;;;;;;8340329;28;20087;-60
2023/06/22 23:47:44;;;;;;;4.10;3.70;;;;;;;;;;8333106;28;20037;-60
2023/06/22 23:51:44;;;;;;;4.65;4.10;;;;;;;;;;8341238;28;20441;-59
2023/06/22 23:55:45;;;;;;;5.80;4.07;;;;;;;;;;8335044;28;20460;-59
2023/06/22 23:59:50;;;;;;;8.07;4.30;;;;;;;;;;8334529;28;20032;-60
